createdAt,value
2022-08-05T00:00:50.301Z,46.16
2022-08-05T00:01:48.823Z,45.86
2022-08-05T00:02:50.846Z,45.76
2022-08-05T00:03:47.794Z,45.76
2022-08-05T00:04:46.758Z,45.86
2022-08-05T00:06:06.450Z,45.86
2022-08-05T00:06:51.897Z,45.96
2022-08-05T00:08:00.352Z,46.18
2022-08-05T00:08:47.707Z,46.48
2022-08-05T00:09:46.727Z,46.48
2022-08-05T00:10:46.698Z,46.38
2022-08-05T00:11:49.661Z,46.38
2022-08-05T00:12:56.478Z,46.48
2022-08-05T00:13:53.012Z,46.58
2022-08-05T00:14:47.667Z,46.58
2022-08-05T00:15:57.802Z,46.67
2022-08-05T00:16:53.415Z,46.78
2022-08-05T00:17:47.627Z,46.70
2022-08-05T00:18:46.631Z,46.80
2022-08-05T00:20:01.911Z,46.89
2022-08-05T00:20:47.581Z,47.19
2022-08-05T00:21:46.583Z,47.29
2022-08-05T00:22:47.160Z,47.09
2022-08-05T00:24:06.153Z,47.09
2022-08-05T00:24:47.572Z,47.39
2022-08-05T00:25:47.542Z,47.29
2022-08-05T00:26:51.775Z,47.29
2022-08-05T00:27:47.511Z,47.59
2022-08-05T00:28:46.512Z,47.49
2022-08-05T00:29:46.521Z,47.61
2022-08-05T00:30:46.488Z,47.81
2022-08-05T00:32:10.576Z,47.81
2022-08-05T00:32:47.467Z,47.91
2022-08-05T00:34:54.673Z,48.01
2022-08-05T00:35:04.494Z,47.91
2022-08-05T00:35:47.819Z,48.01
2022-08-05T00:37:11.629Z,48.21
2022-08-05T00:37:53.604Z,48.43
2022-08-05T00:38:47.405Z,48.53
2022-08-05T00:39:57.806Z,48.63
2022-08-05T00:40:53.342Z,48.63
2022-08-05T00:41:55.049Z,48.53
2022-08-05T00:42:49.131Z,48.92
2022-08-05T00:43:47.293Z,48.53
2022-08-05T00:44:46.371Z,49.12
2022-08-05T00:45:46.329Z,48.92
2022-08-05T00:46:46.328Z,48.92
2022-08-05T00:47:55.984Z,48.72
2022-08-05T00:48:51.411Z,49.42
2022-08-05T00:49:51.531Z,49.22
2022-08-05T00:50:47.285Z,49.32
2022-08-05T00:51:51.731Z,49.22
2022-08-05T00:52:47.286Z,49.32
2022-08-05T00:54:02.740Z,49.42
2022-08-05T00:54:47.258Z,49.52
2022-08-05T00:55:46.232Z,49.02
2022-08-05T00:56:51.455Z,49.02
2022-08-05T00:57:58.012Z,49.12
2022-08-05T00:58:47.191Z,49.52
2022-08-05T00:59:46.202Z,49.81
2022-08-05T01:00:46.204Z,49.42
2022-08-05T01:01:48.588Z,49.84
2022-08-05T01:02:46.162Z,49.74
2022-08-05T01:03:46.165Z,49.74
2022-08-05T01:04:46.171Z,49.64
2022-08-05T01:05:46.139Z,49.94
2022-08-05T01:06:48.598Z,49.74
2022-08-05T01:08:42.323Z,49.74
2022-08-05T01:08:47.431Z,50.04
2022-08-05T01:09:46.283Z,49.94
2022-08-05T01:10:51.579Z,50.23
2022-08-05T01:11:47.068Z,50.63
2022-08-05T01:13:05.080Z,50.73
2022-08-05T01:13:58.809Z,50.53
2022-08-05T01:14:47.028Z,50.43
2022-08-05T01:15:47.796Z,50.46
2022-08-05T01:16:46.017Z,50.65
2022-08-05T01:17:46.012Z,50.65
2022-08-05T01:18:48.150Z,50.56
2022-08-05T01:20:02.088Z,51.45
2022-08-05T01:20:46.975Z,51.35
2022-08-05T01:21:45.966Z,51.45
2022-08-05T01:22:47.002Z,51.15
2022-08-05T01:23:45.996Z,50.85
2022-08-05T01:24:46.930Z,50.85
2022-08-05T01:25:53.314Z,51.05
2022-08-05T01:26:46.912Z,51.05
2022-08-05T01:27:55.048Z,51.25
2022-08-05T01:28:46.914Z,51.25
2022-08-05T01:29:46.252Z,51.25
2022-08-05T01:30:53.583Z,50.95
2022-08-05T01:31:46.864Z,50.95
2022-08-05T01:32:45.844Z,50.95
2022-08-05T01:33:49.249Z,51.75
2022-08-05T01:34:46.833Z,51.25
2022-08-05T01:35:51.111Z,51.45
2022-08-05T01:36:46.913Z,51.54
2022-08-05T01:37:45.797Z,51.35
2022-08-05T01:38:45.815Z,51.45
2022-08-05T01:39:47.886Z,51.35
2022-08-05T01:40:45.780Z,51.28
2022-08-05T01:41:45.747Z,51.47
2022-08-05T01:42:45.782Z,51.87
2022-08-05T01:43:45.749Z,51.67
2022-08-05T01:44:53.835Z,51.67
2022-08-05T01:45:46.717Z,51.57
2022-08-05T01:46:46.812Z,51.57
2022-08-05T01:47:45.699Z,51.45
2022-08-05T01:48:45.701Z,51.45
2022-08-05T01:50:01.312Z,51.45
2022-08-05T01:50:50.915Z,51.28
2022-08-05T01:51:51.861Z,51.18
2022-08-05T01:52:50.049Z,51.37
2022-08-05T01:53:58.126Z,51.57
2022-08-05T01:54:46.642Z,51.77
2022-08-05T01:55:46.612Z,52.07
2022-08-05T01:58:11.959Z,52.59
2022-08-05T01:58:12.358Z,52.39
2022-08-05T01:58:47.091Z,52.79
2022-08-05T01:59:47.006Z,52.98
2022-08-05T02:00:45.553Z,53.31
2022-08-05T02:01:45.607Z,53.80
2022-08-05T02:02:46.373Z,54.13
2022-08-05T02:03:46.537Z,54.72
2022-08-05T02:04:46.087Z,55.22
2022-08-05T02:05:45.522Z,55.44
2022-08-05T02:06:45.513Z,55.74
2022-08-05T02:07:47.398Z,56.14
2022-08-05T02:08:58.033Z,56.44
2022-08-05T02:09:46.508Z,56.54
2022-08-05T02:10:45.458Z,56.77
2022-08-05T02:11:48.015Z,56.87
2022-08-05T02:12:46.450Z,56.96
2022-08-05T02:13:53.857Z,56.77
2022-08-05T02:14:47.100Z,56.87
2022-08-05T02:15:45.421Z,56.96
2022-08-05T02:16:45.397Z,57.06
2022-08-05T02:18:27.781Z,57.26
2022-08-05T02:18:46.379Z,57.66
2022-08-05T02:19:47.219Z,57.56
2022-08-05T02:20:46.980Z,57.66
2022-08-05T02:21:46.823Z,57.79
2022-08-05T02:22:45.343Z,57.76
2022-08-05T02:23:45.936Z,57.89
2022-08-05T02:24:45.310Z,57.99
2022-08-05T02:25:49.479Z,58.28
2022-08-05T02:26:54.636Z,58.48
2022-08-05T02:27:58.038Z,58.58
2022-08-05T02:28:46.327Z,58.81
2022-08-05T02:29:58.846Z,59.01
2022-08-05T02:30:54.384Z,59.11
2022-08-05T02:31:46.249Z,59.21
2022-08-05T02:32:45.230Z,59.31
2022-08-05T02:33:45.223Z,59.21
2022-08-05T02:34:45.213Z,59.21
2022-08-05T02:35:55.940Z,59.01
2022-08-05T02:36:46.187Z,59.01
2022-08-05T02:37:47.886Z,59.21
2022-08-05T02:38:53.192Z,59.11
2022-08-05T02:39:47.652Z,59.11
2022-08-05T02:40:46.163Z,59.11
2022-08-05T02:42:01.359Z,59.31
2022-08-05T02:42:52.727Z,59.41
2022-08-05T02:44:02.747Z,59.51
2022-08-05T02:44:46.064Z,59.81
2022-08-05T02:45:52.538Z,59.91
2022-08-05T02:46:58.331Z,59.81
2022-08-05T02:48:07.545Z,59.91
2022-08-05T02:48:46.010Z,59.91
2022-08-05T02:49:45.052Z,59.91
2022-08-05T02:50:45.069Z,60.00
2022-08-05T02:52:02.670Z,59.91
2022-08-05T02:52:45.977Z,60.00
2022-08-05T02:53:44.962Z,60.13
2022-08-05T02:54:52.113Z,60.24
2022-08-05T02:55:53.875Z,60.63
2022-08-05T02:56:46.073Z,60.63
2022-08-05T02:58:09.414Z,60.83
2022-08-05T02:58:51.610Z,60.83
2022-08-05T02:59:50.310Z,60.93
2022-08-05T03:00:46.040Z,61.25
2022-08-05T03:01:44.957Z,61.55
2022-08-05T03:02:44.883Z,61.55
2022-08-05T03:04:03.233Z,61.46
2022-08-05T03:04:45.862Z,61.76
2022-08-05T03:06:55.753Z,62.15
2022-08-05T03:06:55.815Z,61.96
2022-08-05T03:08:04.551Z,62.35
2022-08-05T03:08:45.830Z,62.45
2022-08-05T03:09:51.676Z,62.55
2022-08-05T03:11:55.322Z,62.65
2022-08-05T03:11:55.826Z,62.85
2022-08-05T03:12:45.773Z,62.85
2022-08-05T03:13:52.252Z,62.85
2022-08-05T03:14:46.314Z,63.15
2022-08-05T03:15:44.725Z,63.25
2022-08-05T03:16:44.717Z,63.05
2022-08-05T03:17:44.864Z,63.05
2022-08-05T03:18:45.938Z,63.05
2022-08-05T03:19:45.820Z,63.15
2022-08-05T03:20:48.977Z,63.25
2022-08-05T03:21:49.387Z,63.25
2022-08-05T03:22:49.787Z,63.35
2022-08-05T03:23:45.847Z,63.35
2022-08-05T03:24:44.632Z,63.55
2022-08-05T03:26:04.308Z,63.65
2022-08-05T03:26:45.770Z,63.65
2022-08-05T03:27:59.092Z,63.75
2022-08-05T03:28:45.603Z,63.85
2022-08-05T03:30:07.195Z,63.85
2022-08-05T03:30:45.582Z,63.85
2022-08-05T03:31:55.565Z,63.95
2022-08-05T03:32:45.540Z,63.85
2022-08-05T03:33:52.838Z,63.85
2022-08-05T03:34:51.178Z,63.85
2022-08-05T03:35:45.523Z,63.85
2022-08-05T03:36:44.504Z,64.04
2022-08-05T03:37:46.273Z,63.92
2022-08-05T03:38:44.492Z,63.92
2022-08-05T03:39:57.799Z,64.12
2022-08-05T03:40:48.517Z,64.22
2022-08-05T03:41:46.701Z,64.45
2022-08-05T03:42:52.585Z,64.42
2022-08-05T03:44:09.409Z,64.51
2022-08-05T03:44:45.447Z,64.42
2022-08-05T03:45:57.883Z,64.42
2022-08-05T03:46:45.416Z,64.31
2022-08-05T03:47:44.415Z,64.31
2022-08-05T03:48:46.791Z,64.22
2022-08-05T03:49:51.826Z,64.51
2022-08-05T03:50:45.505Z,64.42
2022-08-05T03:52:49.325Z,64.31
2022-08-05T03:54:59.312Z,64.51
2022-08-05T03:55:00.072Z,64.61
2022-08-05T03:55:51.764Z,64.51
2022-08-05T03:56:05.427Z,64.48
2022-08-05T03:56:46.313Z,64.58
2022-08-05T03:57:44.674Z,64.78
2022-08-05T03:58:44.693Z,64.58
2022-08-05T03:59:47.286Z,64.58
2022-08-05T04:00:51.477Z,64.58
2022-08-05T04:01:45.378Z,64.48
2022-08-05T04:02:45.189Z,64.39
2022-08-05T04:04:09.114Z,64.48
2022-08-05T04:04:45.242Z,64.39
2022-08-05T04:05:44.204Z,64.18
2022-08-05T04:06:48.031Z,64.48
2022-08-05T04:07:57.402Z,63.98
2022-08-05T04:08:45.179Z,63.95
2022-08-05T04:09:53.762Z,63.85
2022-08-05T04:10:45.179Z,63.76
2022-08-05T04:11:50.491Z,63.85
2022-08-05T04:13:22.585Z,63.85
2022-08-05T04:14:30.035Z,63.85
2022-08-05T04:15:24.514Z,63.95
2022-08-05T04:16:25.476Z,64.25
2022-08-05T04:17:22.053Z,63.85
2022-08-05T04:18:22.659Z,63.76
2022-08-05T04:19:21.484Z,63.85
2022-08-05T04:20:20.461Z,63.76
2022-08-05T04:22:10.284Z,63.66
2022-08-05T04:22:21.442Z,63.66
2022-08-05T04:23:20.458Z,63.66
2022-08-05T04:24:22.708Z,63.46
2022-08-05T04:25:24.241Z,63.56
2022-08-05T04:26:21.417Z,63.56
2022-08-05T04:27:33.276Z,63.85
2022-08-05T04:28:21.399Z,63.85
2022-08-05T04:29:21.372Z,63.95
2022-08-05T04:30:20.346Z,64.15
2022-08-05T04:31:20.410Z,63.85
2022-08-05T04:32:31.023Z,63.95
2022-08-05T04:34:17.622Z,64.06
2022-08-05T04:34:33.443Z,63.95
2022-08-05T04:35:21.311Z,63.95
2022-08-05T04:36:45.470Z,64.15
2022-08-05T04:37:22.885Z,63.95
2022-08-05T04:38:21.294Z,63.95
2022-08-05T04:39:20.330Z,64.25
2022-08-05T04:40:20.244Z,64.06
2022-08-05T04:41:20.245Z,64.06
2022-08-05T04:42:21.255Z,64.36
2022-08-05T04:43:22.203Z,64.25
2022-08-05T04:44:24.434Z,64.36
2022-08-05T04:45:23.007Z,64.22
2022-08-05T04:46:28.356Z,64.12
2022-08-05T04:47:21.251Z,64.25
2022-08-05T04:48:27.848Z,64.36
2022-08-05T04:49:24.877Z,64.32
2022-08-05T04:50:34.339Z,64.55
2022-08-05T04:51:21.148Z,64.42
2022-08-05T04:52:20.143Z,64.65
2022-08-05T04:53:20.135Z,65.05
2022-08-05T04:54:20.099Z,65.25
2022-08-05T04:55:23.923Z,65.25
2022-08-05T04:56:34.897Z,65.45
2022-08-05T04:57:21.296Z,65.75
2022-08-05T04:58:21.729Z,65.55
2022-08-05T04:59:24.338Z,65.35
2022-08-05T05:00:23.495Z,65.75
2022-08-05T05:02:06.140Z,65.31
2022-08-05T05:02:37.739Z,65.02
2022-08-05T05:03:21.011Z,64.82
2022-08-05T05:04:20.004Z,64.59
2022-08-05T05:05:28.606Z,63.86
2022-08-05T05:06:40.348Z,62.48
2022-08-05T05:07:23.939Z,60.74
2022-08-05T05:08:26.601Z,59.42
2022-08-05T05:09:20.947Z,58.07
2022-08-05T05:10:19.945Z,56.86
2022-08-05T05:11:19.926Z,56.54
2022-08-05T05:12:19.943Z,55.92
2022-08-05T05:13:19.896Z,55.52
2022-08-05T05:14:31.225Z,56.24
2022-08-05T05:15:57.847Z,57.78
2022-08-05T05:16:20.863Z,58.80
2022-08-05T05:17:24.224Z,59.32
2022-08-05T05:18:31.559Z,59.84
2022-08-05T05:19:23.602Z,60.14
2022-08-05T05:20:20.831Z,60.24
2022-08-05T05:21:19.820Z,61.07
2022-08-05T05:22:24.258Z,61.79
2022-08-05T05:23:20.824Z,62.18
2022-08-05T05:24:19.814Z,62.08
2022-08-05T05:25:19.796Z,62.41
2022-08-05T05:26:28.716Z,62.18
2022-08-05T05:27:21.143Z,62.08
2022-08-05T05:28:19.776Z,62.18
2022-08-05T05:29:19.776Z,62.41
2022-08-05T05:30:29.624Z,62.71
2022-08-05T05:31:20.720Z,62.71
2022-08-05T05:32:19.779Z,62.91
2022-08-05T05:33:23.497Z,63.13
2022-08-05T05:34:24.166Z,63.24
2022-08-05T05:35:20.666Z,63.43
2022-08-05T05:36:19.702Z,63.24
2022-08-05T05:37:19.678Z,63.43
2022-08-05T05:38:22.568Z,64.36
2022-08-05T05:39:20.669Z,64.98
2022-08-05T05:40:19.856Z,65.48
2022-08-05T05:41:19.607Z,65.78
2022-08-05T05:42:20.835Z,65.88
2022-08-05T05:43:27.646Z,66.01
2022-08-05T05:44:36.620Z,66.08
2022-08-05T05:45:21.516Z,66.21
2022-08-05T05:46:19.577Z,66.31
2022-08-05T05:47:21.508Z,66.18
2022-08-05T05:48:19.547Z,66.31
2022-08-05T05:49:22.490Z,66.51
2022-08-05T05:50:19.798Z,66.61
2022-08-05T05:51:19.501Z,66.71
2022-08-05T05:52:28.562Z,66.71
2022-08-05T05:53:21.131Z,66.61
2022-08-05T05:54:19.699Z,66.38
2022-08-05T05:55:19.474Z,66.18
2022-08-05T05:56:31.815Z,66.28
2022-08-05T05:57:20.598Z,65.98
2022-08-05T05:58:19.426Z,66.08
2022-08-05T05:59:20.409Z,65.98
2022-08-05T06:00:19.450Z,65.98
2022-08-05T06:01:19.390Z,66.18
2022-08-05T06:02:32.565Z,65.88
2022-08-05T06:03:40.833Z,66.18
2022-08-05T06:04:20.489Z,66.08
2022-08-05T06:05:19.356Z,65.98
2022-08-05T06:06:19.409Z,65.98
2022-08-05T06:07:22.438Z,65.98
2022-08-05T06:08:32.611Z,65.98
2022-08-05T06:09:26.623Z,66.08
2022-08-05T06:10:20.310Z,66.08
2022-08-05T06:11:19.300Z,65.88
2022-08-05T06:12:19.632Z,65.68
2022-08-05T06:13:19.286Z,65.35
2022-08-05T06:14:19.290Z,65.16
2022-08-05T06:15:23.982Z,64.95
2022-08-05T06:16:28.784Z,64.62
2022-08-05T06:17:22.654Z,64.53
2022-08-05T06:18:19.216Z,64.53
2022-08-05T06:19:32.933Z,64.43
2022-08-05T06:20:21.661Z,64.23
2022-08-05T06:21:19.208Z,64.00
2022-08-05T06:22:19.211Z,63.70
2022-08-05T06:23:19.199Z,63.31
2022-08-05T06:24:22.485Z,62.98
2022-08-05T06:25:50.536Z,63.51
2022-08-05T06:26:21.455Z,64.13
2022-08-05T06:28:11.815Z,64.43
2022-08-05T06:28:21.361Z,64.95
2022-08-05T06:29:45.447Z,65.16
2022-08-05T06:30:21.388Z,65.45
2022-08-05T06:31:21.953Z,65.12
2022-08-05T06:32:25.531Z,65.12
2022-08-05T06:33:33.448Z,65.35
2022-08-05T06:34:20.390Z,65.12
2022-08-05T06:36:03.943Z,65.02
2022-08-05T06:36:20.055Z,64.70
2022-08-05T06:37:56.301Z,64.92
2022-08-05T06:38:36.805Z,65.32
2022-08-05T06:39:20.043Z,65.85
2022-08-05T06:40:21.388Z,66.48
2022-08-05T06:41:19.976Z,66.05
2022-08-05T06:42:19.000Z,64.92
2022-08-05T06:43:59.013Z,63.37
2022-08-05T06:44:19.947Z,62.12
2022-08-05T06:45:21.237Z,61.30
2022-08-05T06:46:18.955Z,60.48
2022-08-05T06:47:21.681Z,60.06
2022-08-05T06:48:52.933Z,59.56
2022-08-05T06:49:21.078Z,59.44
2022-08-05T06:50:18.913Z,58.39
2022-08-05T06:51:26.699Z,57.70
2022-08-05T06:52:37.355Z,57.60
2022-08-05T06:53:22.555Z,57.60
2022-08-05T06:54:19.843Z,56.98
2022-08-05T06:55:19.857Z,57.07
2022-08-05T06:56:26.525Z,56.56
2022-08-05T06:58:03.132Z,56.36
2022-08-05T06:58:34.910Z,55.94
2022-08-05T06:59:19.798Z,56.46
2022-08-05T07:00:24.609Z,56.88
2022-08-05T07:01:20.745Z,57.50
2022-08-05T07:02:18.765Z,58.64
2022-08-05T07:03:18.764Z,59.23
2022-08-05T07:04:19.132Z,59.86
2022-08-05T07:05:20.647Z,60.78
2022-08-05T07:06:19.234Z,60.88
2022-08-05T07:07:24.141Z,61.10
2022-08-05T07:08:19.710Z,61.70
2022-08-05T07:09:19.725Z,61.60
2022-08-05T07:10:19.709Z,61.10
2022-08-05T07:11:22.152Z,61.30
2022-08-05T07:12:19.677Z,61.73
2022-08-05T07:13:56.849Z,61.93
2022-08-05T07:14:20.471Z,61.60
2022-08-05T07:15:34.761Z,61.07
2022-08-05T07:16:25.711Z,60.58
2022-08-05T07:18:01.976Z,60.68
2022-08-05T07:18:27.283Z,61.30
2022-08-05T07:19:44.290Z,61.63
2022-08-05T07:20:38.739Z,61.83
2022-08-05T07:21:25.958Z,62.35
2022-08-05T07:22:19.545Z,62.65
2022-08-05T07:23:26.522Z,62.85
2022-08-05T07:24:19.533Z,63.24
2022-08-05T07:25:54.359Z,62.42
2022-08-05T07:26:22.750Z,62.32
2022-08-05T07:27:19.593Z,62.32
2022-08-05T07:28:18.709Z,62.10
2022-08-05T07:29:18.499Z,61.90
2022-08-05T07:30:25.680Z,61.80
2022-08-05T07:31:19.531Z,61.57
2022-08-05T07:32:26.385Z,62.10
2022-08-05T07:33:19.453Z,62.19
2022-08-05T07:34:21.506Z,61.70
2022-08-05T07:36:02.889Z,61.90
2022-08-05T07:36:20.676Z,61.80
2022-08-05T07:37:18.561Z,61.70
2022-08-05T07:38:32.284Z,61.90
2022-08-05T07:39:24.815Z,61.70
2022-08-05T07:40:31.437Z,61.90
2022-08-05T07:42:14.353Z,61.40
2022-08-05T07:42:19.477Z,61.18
2022-08-05T07:43:20.950Z,60.38
2022-08-05T07:44:19.102Z,59.95
2022-08-05T07:45:18.330Z,60.08
2022-08-05T07:46:24.485Z,60.19
2022-08-05T07:47:19.343Z,60.02
2022-08-05T07:49:00.821Z,60.41
2022-08-05T07:49:19.327Z,60.81
2022-08-05T07:50:18.294Z,60.91
2022-08-05T07:51:23.300Z,62.15
2022-08-05T07:52:19.266Z,62.26
2022-08-05T07:53:18.240Z,62.35
2022-08-05T07:54:18.712Z,61.96
2022-08-05T07:56:05.776Z,61.66
2022-08-05T07:57:02.421Z,62.05
2022-08-05T07:57:41.771Z,61.96
2022-08-05T07:58:59.046Z,62.26
2022-08-05T07:59:23.199Z,62.08
2022-08-05T08:00:19.180Z,62.29
2022-08-05T08:01:18.182Z,62.38
2022-08-05T08:02:18.370Z,62.48
2022-08-05T08:03:18.290Z,62.58
2022-08-05T08:04:18.111Z,62.78
2022-08-05T08:05:19.114Z,62.68
2022-08-05T08:06:18.129Z,62.48
2022-08-05T08:07:21.968Z,62.38
2022-08-05T08:08:19.932Z,62.48
2022-08-05T08:09:18.102Z,62.15
2022-08-05T08:10:20.593Z,61.86
2022-08-05T08:11:18.052Z,61.99
2022-08-05T08:12:37.142Z,62.18
2022-08-05T08:13:21.869Z,62.18
2022-08-05T08:14:19.238Z,62.48
2022-08-05T08:15:18.003Z,62.71
2022-08-05T08:16:50.439Z,63.10
2022-08-05T08:17:19.018Z,63.21
2022-08-05T08:18:20.922Z,63.21
2022-08-05T08:20:22.360Z,63.31
2022-08-05T08:20:42.569Z,63.51
2022-08-05T08:21:18.988Z,63.31
2022-08-05T08:22:17.954Z,63.51
2022-08-05T08:24:02.263Z,62.81
2022-08-05T08:24:20.155Z,63.51
2022-08-05T08:25:18.183Z,62.31
2022-08-05T08:26:26.962Z,62.31
2022-08-05T08:27:18.926Z,61.89
2022-08-05T08:28:18.708Z,61.56
2022-08-05T08:30:03.156Z,61.26
2022-08-05T08:30:32.195Z,61.07
2022-08-05T08:31:18.846Z,60.77
2022-08-05T08:32:18.554Z,60.64
2022-08-05T08:33:19.149Z,60.24
2022-08-05T08:34:18.706Z,60.34
2022-08-05T08:35:18.941Z,60.05
2022-08-05T08:36:38.670Z,60.54
2022-08-05T08:37:18.957Z,60.74
2022-08-05T08:38:17.764Z,60.83
2022-08-05T08:39:18.783Z,60.67
2022-08-05T08:40:17.756Z,60.77
2022-08-05T08:41:17.763Z,60.57
2022-08-05T08:42:34.608Z,60.67
2022-08-05T08:44:55.737Z,61.07
2022-08-05T08:45:18.772Z,61.07
2022-08-05T08:45:26.727Z,61.19
2022-08-05T08:46:18.717Z,61.29
2022-08-05T08:47:47.118Z,61.59
2022-08-05T08:48:22.697Z,60.99
2022-08-05T08:50:22.323Z,61.29
2022-08-05T08:50:30.132Z,61.39
2022-08-05T08:51:54.586Z,61.29
2022-08-05T08:52:18.648Z,61.10
2022-08-05T08:53:17.695Z,61.32
2022-08-05T08:54:17.616Z,61.91
2022-08-05T08:55:19.381Z,62.12
2022-08-05T08:56:18.597Z,62.21
2022-08-05T08:57:17.662Z,62.21
2022-08-05T08:58:17.576Z,62.02
2022-08-05T08:59:19.648Z,62.12
2022-08-05T09:00:19.301Z,62.21
2022-08-05T09:01:18.502Z,61.91
2022-08-05T09:02:17.536Z,62.24
2022-08-05T09:03:19.177Z,62.15
2022-08-05T09:04:17.534Z,62.54
2022-08-05T09:05:18.451Z,63.24
2022-08-05T09:06:21.335Z,63.83
2022-08-05T09:07:19.345Z,64.53
2022-08-05T09:08:17.482Z,65.06
2022-08-05T09:09:17.495Z,65.35
2022-08-05T09:10:17.434Z,66.05
2022-08-05T09:11:17.430Z,66.15
2022-08-05T09:12:20.787Z,65.98
2022-08-05T09:13:18.425Z,65.98
2022-08-05T09:14:56.898Z,66.28
2022-08-05T09:15:18.649Z,66.38
2022-08-05T09:16:17.387Z,66.28
2022-08-05T09:17:40.967Z,66.38
2022-08-05T09:18:18.392Z,66.35
2022-08-05T09:19:17.345Z,66.38
2022-08-05T09:20:20.815Z,66.67
2022-08-05T09:22:13.529Z,66.64
2022-08-05T09:22:31.163Z,66.35
2022-08-05T09:23:21.465Z,66.22
2022-08-05T09:24:17.361Z,66.05
2022-08-05T09:25:24.581Z,66.44
2022-08-05T09:26:20.907Z,66.55
2022-08-05T09:28:03.290Z,66.44
2022-08-05T09:28:21.101Z,66.35
2022-08-05T09:29:18.945Z,66.31
2022-08-05T09:30:17.245Z,66.44
2022-08-05T09:31:43.286Z,66.44
2022-08-05T09:32:45.947Z,65.85
2022-08-05T09:33:18.207Z,65.95
2022-08-05T09:34:17.184Z,65.82
2022-08-05T09:35:26.332Z,65.82
2022-08-05T09:36:18.171Z,65.22
2022-08-05T09:37:17.167Z,64.83
2022-08-05T09:38:27.561Z,64.62
2022-08-05T09:39:22.242Z,64.53
2022-08-05T09:40:17.252Z,64.83
2022-08-05T09:41:17.126Z,64.92
2022-08-05T09:42:23.622Z,64.50
2022-08-05T09:43:18.238Z,64.07
2022-08-05T09:44:17.107Z,63.54
2022-08-05T09:45:17.606Z,62.68
2022-08-05T09:46:18.073Z,63.18
2022-08-05T09:47:20.634Z,63.80
2022-08-05T09:48:17.061Z,63.48
2022-08-05T09:49:19.662Z,63.67
2022-08-05T09:50:18.032Z,63.18
2022-08-05T09:51:18.040Z,62.88
2022-08-05T09:52:16.992Z,63.28
2022-08-05T09:53:25.905Z,62.48
2022-08-05T09:54:28.911Z,62.78
2022-08-05T09:55:57.384Z,63.10
2022-08-05T09:56:17.955Z,64.10
2022-08-05T09:57:23.231Z,63.70
2022-08-05T09:58:17.950Z,64.30
2022-08-05T09:59:17.456Z,64.23
2022-08-05T10:00:16.937Z,64.62
2022-08-05T10:01:31.550Z,65.02
2022-08-05T10:02:17.954Z,65.42
2022-08-05T10:03:16.888Z,65.72
2022-08-05T10:04:17.448Z,65.82
2022-08-05T10:05:16.886Z,65.62
2022-08-05T10:06:16.878Z,65.42
2022-08-05T10:07:21.041Z,65.32
2022-08-05T10:08:37.716Z,66.11
2022-08-05T10:09:27.726Z,66.25
2022-08-05T10:10:18.039Z,67.34
2022-08-05T10:11:17.819Z,67.87
2022-08-05T10:12:30.530Z,68.07
2022-08-05T10:13:17.782Z,68.66
2022-08-05T10:14:16.798Z,68.86
2022-08-05T10:15:17.270Z,69.26
2022-08-05T10:16:16.760Z,68.86
2022-08-05T10:17:37.680Z,69.16
2022-08-05T10:18:17.757Z,68.27
2022-08-05T10:19:16.740Z,69.79
2022-08-05T10:20:18.350Z,70.09
2022-08-05T10:21:16.720Z,69.99
2022-08-05T10:22:29.553Z,70.29
2022-08-05T10:23:34.691Z,70.55
2022-08-05T10:24:17.693Z,70.45
2022-08-05T10:25:16.659Z,70.45
2022-08-05T10:26:16.645Z,70.45
2022-08-05T10:27:16.862Z,70.65
2022-08-05T10:28:19.517Z,70.62
2022-08-05T10:29:23.609Z,69.49
2022-08-05T10:32:47.342Z,69.16
2022-08-05T10:32:47.342Z,66.48
2022-08-05T10:32:52.723Z,65.59
2022-08-05T10:33:17.599Z,66.78
2022-08-05T10:34:17.002Z,67.47
2022-08-05T10:35:16.555Z,67.08
2022-08-05T10:36:16.556Z,66.98
2022-08-05T10:37:17.529Z,67.08
2022-08-05T10:38:16.524Z,68.66
2022-08-05T10:39:24.145Z,66.08
2022-08-05T10:40:19.436Z,65.49
2022-08-05T10:41:19.365Z,65.89
2022-08-05T10:42:18.931Z,66.38
2022-08-05T10:43:17.502Z,66.18
2022-08-05T10:44:17.459Z,65.39
2022-08-05T10:45:23.928Z,65.78
2022-08-05T10:46:17.439Z,65.49
2022-08-05T10:47:27.004Z,66.28
2022-08-05T10:48:30.360Z,67.27
2022-08-05T10:49:17.512Z,67.67
2022-08-05T10:50:31.873Z,67.24
2022-08-05T10:51:22.258Z,66.55
2022-08-05T10:52:17.395Z,66.98
2022-08-05T10:53:17.596Z,67.27
2022-08-05T10:54:28.669Z,67.08
2022-08-05T10:55:18.492Z,67.47
2022-08-05T10:56:25.090Z,68.17
2022-08-05T10:57:17.353Z,67.87
2022-08-05T10:58:16.306Z,68.46
2022-08-05T11:00:02.793Z,68.07
2022-08-05T11:00:20.468Z,68.46
2022-08-05T11:01:16.309Z,67.97
2022-08-05T11:02:38.055Z,68.17
2022-08-05T11:03:25.464Z,67.77
2022-08-05T11:04:17.270Z,67.77
2022-08-05T11:05:18.197Z,67.38
2022-08-05T11:06:17.649Z,67.97
2022-08-05T11:07:16.380Z,66.88
2022-08-05T11:08:36.796Z,66.78
2022-08-05T11:09:17.397Z,66.38
2022-08-05T11:10:16.209Z,67.27
2022-08-05T11:11:16.887Z,67.47
2022-08-05T11:12:16.186Z,65.69
2022-08-05T11:13:16.166Z,65.49
2022-08-05T11:14:16.177Z,65.06
2022-08-05T11:15:20.095Z,65.39
2022-08-05T11:16:16.134Z,64.79
2022-08-05T11:17:58.034Z,64.96
2022-08-05T11:18:17.123Z,65.16
2022-08-05T11:20:17.325Z,65.75
2022-08-05T11:20:18.570Z,64.76
2022-08-05T11:21:16.105Z,64.73
2022-08-05T11:22:16.684Z,62.32
2022-08-05T11:23:16.125Z,61.99
2022-08-05T11:24:30.046Z,61.40
2022-08-05T11:26:05.274Z,61.70
2022-08-05T11:26:28.360Z,62.36
2022-08-05T11:27:17.036Z,60.55
2022-08-05T11:28:17.164Z,59.93
2022-08-05T11:29:15.999Z,59.14
2022-08-05T11:30:16.165Z,59.36
2022-08-05T11:31:51.796Z,58.90
2022-08-05T11:32:16.972Z,58.80
2022-08-05T11:33:21.277Z,59.49
2022-08-05T11:34:22.530Z,61.15
2022-08-05T11:35:16.934Z,58.77
2022-08-05T11:36:16.939Z,57.78
2022-08-05T11:38:26.610Z,57.41
2022-08-05T11:38:29.841Z,58.70
2022-08-05T11:39:16.941Z,58.30
2022-08-05T11:40:18.386Z,59.99
2022-08-05T11:41:54.729Z,59.59
2022-08-05T11:42:18.197Z,58.37
2022-08-05T11:43:15.874Z,58.77
2022-08-05T11:44:40.212Z,58.30
2022-08-05T11:45:23.229Z,57.71
2022-08-05T11:46:32.186Z,57.09
2022-08-05T11:47:21.771Z,57.02
2022-08-05T11:48:16.960Z,57.51
2022-08-05T11:49:15.763Z,56.89
2022-08-05T11:50:15.798Z,56.76
2022-08-05T11:51:44.169Z,56.37
2022-08-05T11:52:16.775Z,56.04
2022-08-05T11:53:16.911Z,55.62
2022-08-05T11:54:15.835Z,55.62
2022-08-05T11:55:15.732Z,55.43
2022-08-05T11:56:15.746Z,55.65
2022-08-05T11:57:24.939Z,55.85
2022-08-05T11:58:17.343Z,56.34
2022-08-05T11:59:15.725Z,55.65
2022-08-05T12:00:16.678Z,55.33
2022-08-05T12:01:15.650Z,56.61
2022-08-05T12:02:30.475Z,54.90
2022-08-05T12:03:23.831Z,55.10
2022-08-05T12:04:16.719Z,57.07
2022-08-05T12:05:17.805Z,55.07
2022-08-05T12:06:15.730Z,54.97
2022-08-05T12:07:15.592Z,55.35
2022-08-05T12:08:17.951Z,55.07
2022-08-05T12:09:20.125Z,55.89
2022-08-05T12:10:15.575Z,56.29
2022-08-05T12:11:20.346Z,56.09
2022-08-05T12:12:16.558Z,56.12
2022-08-05T12:13:17.233Z,57.43
2022-08-05T12:14:16.976Z,57.65
2022-08-05T12:15:16.821Z,57.26
2022-08-05T12:16:15.872Z,57.39
2022-08-05T12:18:03.145Z,58.18
2022-08-05T12:18:16.733Z,58.97
2022-08-05T12:20:25.724Z,58.87
2022-08-05T12:20:27.585Z,58.77
2022-08-05T12:21:16.493Z,58.54
2022-08-05T12:22:19.964Z,58.22
2022-08-05T12:23:15.434Z,58.12
2022-08-05T12:24:17.281Z,58.69
2022-08-05T12:25:15.436Z,56.46
2022-08-05T12:26:15.429Z,55.64
2022-08-05T12:27:25.025Z,55.64
2022-08-05T12:28:16.413Z,56.06
2022-08-05T12:29:15.934Z,56.16
2022-08-05T12:30:15.711Z,56.19
2022-08-05T12:31:23.165Z,56.46
2022-08-05T12:32:16.349Z,55.47
2022-08-05T12:33:27.644Z,54.95
2022-08-05T12:34:20.581Z,54.26
2022-08-05T12:35:16.934Z,54.55
2022-08-05T12:36:16.447Z,55.02
2022-08-05T12:37:21.554Z,53.94
2022-08-05T12:38:16.278Z,53.52
2022-08-05T12:39:16.380Z,53.61
2022-08-05T12:40:26.387Z,54.82
2022-08-05T12:41:16.410Z,54.30
2022-08-05T12:42:15.367Z,53.78
2022-08-05T12:43:20.733Z,52.68
2022-08-05T12:44:32.572Z,52.38
2022-08-05T12:45:16.231Z,52.80
2022-08-05T12:46:15.314Z,53.42
2022-08-05T12:47:17.164Z,53.12
2022-08-05T12:48:27.814Z,53.32
2022-08-05T12:49:16.169Z,54.50
2022-08-05T12:50:15.175Z,53.69
2022-08-05T12:52:10.224Z,54.47
2022-08-05T12:52:23.812Z,53.07
2022-08-05T12:53:16.135Z,52.16